createdAt,value
2018-12-21T00:01:18.013Z,98388.68
2018-12-21T00:06:21.672Z,98382.41
2018-12-21T00:11:25.218Z,98379.76
2018-12-21T00:16:28.807Z,98386.98
2018-12-21T00:21:32.260Z,98384.94
2018-12-21T00:26:35.680Z,98376.11
2018-12-21T00:31:44.388Z,98364.44
2018-12-21T00:36:53.048Z,98365.89
2018-12-21T00:41:55.799Z,98368.42
2018-12-21T00:47:02.006Z,98364.08
2018-12-21T00:52:06.003Z,98367.59
2018-12-21T00:57:09.584Z,98343.48
2018-12-21T01:02:13.237Z,98348.29
2018-12-21T01:07:16.776Z,98338.84
2018-12-21T01:12:20.532Z,98351.02
2018-12-21T01:17:24.012Z,98355.92
2018-12-21T01:22:28.297Z,98354.96
2018-12-21T01:27:31.785Z,98353.41
2018-12-21T01:32:35.352Z,98343.16
2018-12-21T01:37:38.804Z,98339.78
2018-12-21T01:42:42.219Z,98336.03
2018-12-21T01:47:45.737Z,98340.14
2018-12-21T01:52:49.265Z,98321.02
2018-12-21T01:57:52.722Z,98331.25
2018-12-21T02:02:56.244Z,98315.97
2018-12-21T02:07:59.909Z,98308.11
2018-12-21T02:13:03.527Z,98302.08
2018-12-21T02:18:07.032Z,98296.90
2018-12-21T02:23:10.531Z,98291.64
2018-12-21T02:28:14.172Z,98282.20
2018-12-21T02:33:17.608Z,98270.66
2018-12-21T02:38:21.082Z,98265.35
2018-12-21T02:43:24.560Z,98263.89
2018-12-21T02:48:28.106Z,98256.17
2018-12-21T02:53:31.535Z,98237.13
2018-12-21T02:58:35.197Z,98231.47
2018-12-21T03:03:38.735Z,98220.47
2018-12-21T03:08:42.328Z,98218.78
2018-12-21T03:13:52.240Z,98208.78
2018-12-21T03:18:56.431Z,98196.73
2018-12-21T03:23:59.989Z,98182.25
2018-12-21T03:29:03.565Z,98179.35
2018-12-21T03:34:07.011Z,98159.21
2018-12-21T03:39:10.789Z,98151.84
2018-12-21T03:44:14.548Z,98150.05
2018-12-21T03:49:18.086Z,98141.03
2018-12-21T03:54:21.503Z,98144.14
2018-12-21T03:59:25.259Z,98127.01
2018-12-21T04:04:28.720Z,98116.40
2018-12-21T04:09:32.141Z,98100.63
2018-12-21T04:14:35.652Z,98095.06
2018-12-21T04:19:39.316Z,98086.75
2018-12-21T04:24:42.960Z,98082.19
2018-12-21T04:29:46.374Z,98093.38
2018-12-21T04:34:49.873Z,98067.60
2018-12-21T04:39:53.313Z,98062.55
2018-12-21T04:44:56.740Z,98054.34
2018-12-21T04:50:00.383Z,98030.72
2018-12-21T04:55:04.217Z,98019.61
2018-12-21T05:00:08.133Z,97996.45
2018-12-21T05:05:11.611Z,97969.68
2018-12-21T05:10:15.158Z,97961.83
2018-12-21T05:15:18.646Z,97973.05
2018-12-21T05:20:22.169Z,97982.88
2018-12-21T05:25:25.621Z,97983.23
2018-12-21T05:30:29.085Z,97974.95
2018-12-21T05:35:32.561Z,97947.25
2018-12-21T05:40:36.011Z,97944.49
2018-12-21T05:45:39.532Z,97929.91
2018-12-21T05:50:43.107Z,97917.73
2018-12-21T05:55:46.540Z,97901.88
2018-12-21T06:00:50.124Z,97887.05
2018-12-21T06:05:53.842Z,97882.72
2018-12-21T06:10:57.259Z,97870.93
2018-12-21T06:16:00.764Z,97864.88
2018-12-21T06:21:04.240Z,97850.81
2018-12-21T06:26:07.802Z,97826.82
2018-12-21T06:31:11.407Z,97824.06
2018-12-21T06:36:14.878Z,97815.86
2018-12-21T06:41:18.400Z,97789.15
2018-12-21T06:46:22.055Z,97786.25
2018-12-21T06:51:26.199Z,97775.86
2018-12-21T06:56:29.616Z,97770.41
2018-12-21T07:01:33.208Z,97753.79
2018-12-21T07:06:36.940Z,97756.80
2018-12-21T07:11:40.392Z,97748.02
2018-12-21T07:16:44.055Z,97738.75
2018-12-21T07:21:47.595Z,97728.95
2018-12-21T07:26:51.133Z,97710.75
2018-12-21T07:31:54.812Z,97699.78
2018-12-21T07:36:58.338Z,97697.48
2018-12-21T07:42:01.845Z,97684.31
2018-12-21T07:47:05.268Z,97673.56
2018-12-21T07:52:08.800Z,97675.02
2018-12-21T07:57:12.232Z,97661.77
2018-12-21T08:02:15.748Z,97664.35
2018-12-21T08:07:19.405Z,97656.92
2018-12-21T08:12:22.835Z,97647.80
2018-12-21T08:17:26.271Z,97640.31
2018-12-21T08:22:29.920Z,97623.16
2018-12-21T08:27:33.500Z,97615.44
2018-12-21T08:32:37.136Z,97612.16
2018-12-21T08:37:40.680Z,97601.09
2018-12-21T08:42:44.936Z,97578.81
2018-12-21T08:47:48.432Z,97561.16
2018-12-21T08:52:52.337Z,97540.80
2018-12-21T08:57:55.787Z,97537.88
2018-12-21T09:02:59.332Z,97513.38
2018-12-21T09:08:02.778Z,97505.27
2018-12-21T09:13:06.272Z,97490.98
2018-12-21T09:18:09.788Z,97495.03
2018-12-21T09:23:13.332Z,97476.11
2018-12-21T09:28:16.789Z,97491.97
2018-12-21T09:33:20.272Z,97481.55
2018-12-21T09:38:23.699Z,97467.19
2018-12-21T09:43:27.265Z,97442.33
2018-12-21T09:48:30.680Z,97423.89
2018-12-21T09:53:34.271Z,97416.97
2018-12-21T09:58:37.760Z,97391.00
2018-12-21T10:03:41.320Z,97374.73
2018-12-21T10:08:44.740Z,97373.86
2018-12-21T10:13:48.406Z,97362.48
2018-12-21T10:18:51.841Z,97348.58
2018-12-21T10:23:55.336Z,97347.49
2018-12-21T10:28:58.761Z,97320.97
2018-12-21T10:34:02.188Z,97314.56
2018-12-21T10:39:07.467Z,97295.61
2018-12-21T10:44:10.924Z,97302.42
2018-12-21T10:49:20.893Z,97307.59
2018-12-21T10:54:26.958Z,97298.44
2018-12-21T10:59:29.960Z,97294.19
2018-12-21T11:04:33.589Z,97287.41
2018-12-21T11:09:37.084Z,97277.98
2018-12-21T11:14:40.895Z,97266.28
2018-12-21T11:19:44.453Z,97263.45
2018-12-21T11:24:49.029Z,97258.44
2018-12-21T11:29:52.559Z,97274.33
2018-12-21T11:34:56.101Z,97270.19
2018-12-21T11:39:59.779Z,97262.23
2018-12-21T11:45:03.248Z,97267.93
2018-12-21T11:50:09.101Z,97279.12
2018-12-21T11:55:12.624Z,97251.13
2018-12-21T12:00:16.142Z,97252.95
2018-12-21T12:05:19.681Z,97254.16
2018-12-21T12:10:23.123Z,97259.69
2018-12-21T12:15:28.586Z,97255.70
2018-12-21T12:20:32.188Z,97250.74
2018-12-21T12:25:35.664Z,97259.90
2018-12-21T12:30:39.094Z,97266.91
2018-12-21T12:35:42.644Z,97269.94
2018-12-21T12:40:46.199Z,97282.10
2018-12-21T12:45:49.781Z,97292.63
2018-12-21T12:50:53.221Z,97303.12
2018-12-21T12:55:56.828Z,97300.95
2018-12-21T13:01:00.416Z,97279.44
2018-12-21T13:06:04.120Z,97296.48
2018-12-21T13:11:07.607Z,97298.43
2018-12-21T13:16:11.088Z,97290.75
2018-12-21T13:21:14.584Z,97278.54
2018-12-21T13:26:18.077Z,97269.36
2018-12-21T13:31:21.564Z,97272.87
2018-12-21T13:36:25.076Z,97267.36
2018-12-21T13:41:28.648Z,97267.88
2018-12-21T13:46:32.151Z,97247.41
2018-12-21T13:51:35.676Z,97240.89
2018-12-21T13:56:39.133Z,97265.90
2018-12-21T14:01:42.625Z,97279.57
2018-12-21T14:06:52.564Z,97281.77
2018-12-21T14:11:56.009Z,97287.14
2018-12-21T14:16:59.624Z,97294.81
2018-12-21T14:22:03.124Z,97294.98
2018-12-21T14:27:06.612Z,97304.15
2018-12-21T14:32:10.133Z,97298.66
2018-12-21T14:37:13.677Z,97327.24
2018-12-21T14:42:17.243Z,97325.69
2018-12-21T14:47:20.709Z,97311.19
2018-12-21T14:53:26.663Z,97319.02
2018-12-21T14:58:30.083Z,97338.73
2018-12-21T15:03:33.484Z,97345.53
2018-12-21T15:08:37.009Z,97348.39
2018-12-21T15:13:40.416Z,97346.72
2018-12-21T15:18:44.042Z,97355.58
2018-12-21T15:23:47.675Z,97350.72
2018-12-21T15:34:00.686Z,97350.72
2018-12-21T15:39:06.175Z,97357.55
2018-12-21T15:44:09.616Z,97366.74
2018-12-21T15:49:13.028Z,97368.41
2018-12-21T15:54:16.673Z,97382.91
2018-12-21T15:59:20.075Z,97397.00
2018-12-21T16:04:23.604Z,97418.70
2018-12-21T16:09:28.168Z,97415.03
2018-12-21T16:14:34.669Z,97424.19
2018-12-21T16:19:37.121Z,97434.55
2018-12-21T16:24:40.648Z,97437.39
2018-12-21T16:29:44.118Z,97450.42
2018-12-21T16:34:47.746Z,97447.74
2018-12-21T16:39:51.368Z,97453.23
2018-12-21T16:44:54.884Z,97463.30
2018-12-21T16:49:58.489Z,97453.28
2018-12-21T16:55:02.095Z,97467.12
2018-12-21T17:00:09.364Z,97476.66
2018-12-21T17:05:13.136Z,97483.00
2018-12-21T17:10:20.177Z,97477.81
2018-12-21T17:15:23.837Z,97503.36
2018-12-21T17:20:27.597Z,97509.19
2018-12-21T17:25:32.244Z,97506.84
2018-12-21T17:30:35.920Z,97524.36
2018-12-21T17:35:39.632Z,97525.01
2018-12-21T17:40:43.132Z,97538.21
2018-12-21T17:45:46.760Z,97544.04
2018-12-21T17:50:50.288Z,97565.26
2018-12-21T17:55:53.708Z,97562.46
2018-12-21T18:00:57.432Z,97578.83
2018-12-21T18:06:00.868Z,97593.14
2018-12-21T18:11:04.650Z,97594.64
2018-12-21T18:16:08.076Z,97608.66
2018-12-21T18:21:11.500Z,97599.48
2018-12-21T18:26:15.188Z,97615.02
2018-12-21T18:31:26.724Z,97620.67
2018-12-21T18:36:30.251Z,97638.53
2018-12-21T18:41:33.751Z,97644.39
2018-12-21T18:46:37.180Z,97645.38
2018-12-21T18:51:40.751Z,97650.06
2018-12-21T18:56:55.371Z,97659.11
2018-12-21T19:01:58.789Z,97643.70
2018-12-21T19:07:02.490Z,97656.77
2018-12-21T19:12:06.377Z,97672.43
2018-12-21T19:17:09.893Z,97678.14
2018-12-21T19:22:13.453Z,97679.78
2018-12-21T19:27:17.043Z,97678.98
2018-12-21T19:32:20.532Z,97699.94
2018-12-21T19:37:24.804Z,97714.27
2018-12-21T19:42:28.387Z,97714.33
2018-12-21T19:47:31.844Z,97699.07
2018-12-21T19:52:35.516Z,97723.81
2018-12-21T19:57:38.928Z,97722.18
2018-12-21T20:02:42.586Z,97731.59
2018-12-21T20:07:46.060Z,97724.58
2018-12-21T20:12:49.795Z,97725.18
2018-12-21T20:17:53.421Z,97720.66
2018-12-21T20:22:56.951Z,97727.53
2018-12-21T20:28:00.452Z,97716.86
2018-12-21T20:33:04.192Z,97733.61
2018-12-21T20:38:07.763Z,97742.51
2018-12-21T20:43:11.477Z,97747.82
2018-12-21T20:48:14.990Z,97758.04
2018-12-21T20:53:18.503Z,97756.85
2018-12-21T20:58:56.997Z,97763.87
2018-12-21T21:04:00.667Z,97770.28
2018-12-21T21:09:05.381Z,97761.34
2018-12-21T21:14:10.271Z,97768.30
2018-12-21T21:19:14.200Z,97794.68
2018-12-21T21:24:17.719Z,97800.56
2018-12-21T21:29:21.360Z,97809.91
2018-12-21T21:34:24.832Z,97812.45
2018-12-21T21:39:28.336Z,97815.80
2018-12-21T21:44:31.955Z,97824.19
2018-12-21T21:49:35.460Z,97832.98
2018-12-21T21:54:39.020Z,97823.16
2018-12-21T21:59:42.620Z,97841.09
2018-12-21T22:04:46.137Z,97843.72
2018-12-21T22:09:49.828Z,97828.97
2018-12-21T22:14:53.360Z,97829.06
2018-12-21T22:19:57.111Z,97829.13
2018-12-21T22:25:00.633Z,97835.75
2018-12-21T22:30:06.348Z,97854.38
2018-12-21T22:35:10.055Z,97840.74
2018-12-21T22:40:13.769Z,97847.62
2018-12-21T22:45:17.298Z,97850.34
2018-12-21T22:50:21.471Z,97854.67
2018-12-21T22:55:24.920Z,97854.04
2018-12-21T23:00:34.866Z,97860.27
2018-12-21T23:05:38.376Z,97851.46
2018-12-21T23:10:41.785Z,97848.19
2018-12-21T23:15:45.455Z,97831.19
2018-12-21T23:20:49.071Z,97839.92
2018-12-21T23:25:52.576Z,97844.21
2018-12-21T23:30:56.024Z,97859.00
2018-12-21T23:36:00.128Z,97845.63
2018-12-21T23:41:03.547Z,97852.59
2018-12-21T23:46:07.176Z,97852.96
2018-12-21T23:51:10.734Z,97854.59
2018-12-21T23:56:14.484Z,97864.91
